createdAt,value
2022-08-28T00:00:43.822Z,6.63
2022-08-28T00:03:13.279Z,4.40
2022-08-28T00:05:41.227Z,4.10
2022-08-28T00:08:13.391Z,4.15
2022-08-28T00:10:41.438Z,4.38
2022-08-28T00:13:15.675Z,3.33
2022-08-28T00:15:42.745Z,7.45
2022-08-28T00:18:09.973Z,5.38
2022-08-28T00:20:37.622Z,2.28
2022-08-28T00:23:07.012Z,2.53
2022-08-28T00:25:34.737Z,2.33
2022-08-28T00:28:09.176Z,2.65
2022-08-28T00:30:46.810Z,3.15
2022-08-28T00:33:25.343Z,2.70
2022-08-28T00:35:52.309Z,2.53
2022-08-28T00:38:20.174Z,3.25
2022-08-28T00:40:50.743Z,2.40
2022-08-28T00:43:35.285Z,2.50
2022-08-28T00:46:04.549Z,3.20
2022-08-28T00:48:31.767Z,4.40
2022-08-28T00:51:17.530Z,2.85
2022-08-28T00:53:45.033Z,4.13
2022-08-28T00:56:13.809Z,2.78
2022-08-28T00:58:43.594Z,10.02
2022-08-28T01:01:11.461Z,14.18
2022-08-28T01:03:38.626Z,6.72
2022-08-28T01:06:07.234Z,4.22
2022-08-28T01:08:36.270Z,3.50
2022-08-28T01:11:07.470Z,2.55
2022-08-28T01:13:36.749Z,2.38
2022-08-28T01:16:05.490Z,2.63
2022-08-28T01:18:34.209Z,4.88
2022-08-28T01:21:30.814Z,3.50
2022-08-28T01:24:02.764Z,3.58
2022-08-28T01:28:59.168Z,3.40
2022-08-28T01:31:28.939Z,6.30
2022-08-28T01:33:56.203Z,3.22
2022-08-28T01:36:23.375Z,3.60
2022-08-28T01:38:56.319Z,4.13
2022-08-28T01:41:23.493Z,5.03
2022-08-28T01:43:50.288Z,2.90
2022-08-28T01:46:17.603Z,2.92
2022-08-28T01:48:44.849Z,4.82
2022-08-28T01:51:13.477Z,3.10
2022-08-28T01:53:41.732Z,2.83
2022-08-28T01:56:15.973Z,2.85
2022-08-28T01:58:43.583Z,2.90
2022-08-28T02:01:16.283Z,7.70
2022-08-28T02:03:43.571Z,3.85
2022-08-28T02:06:11.425Z,4.50
2022-08-28T02:08:39.710Z,5.07
2022-08-28T02:11:07.550Z,4.72
2022-08-28T02:13:39.958Z,5.07
2022-08-28T02:16:09.644Z,5.03
2022-08-28T02:18:38.012Z,3.47
2022-08-28T02:21:06.628Z,2.97
2022-08-28T02:23:33.547Z,3.20
2022-08-28T02:26:00.604Z,3.92
2022-08-28T02:28:27.586Z,3.95
2022-08-28T02:30:54.800Z,4.13
2022-08-28T02:33:21.870Z,4.43
2022-08-28T02:35:49.537Z,4.68
2022-08-28T02:38:17.364Z,5.38
2022-08-28T02:40:45.855Z,5.80
2022-08-28T02:43:13.102Z,7.32
2022-08-28T02:45:40.090Z,7.35
2022-08-28T02:48:11.990Z,7.30
2022-08-28T02:50:44.082Z,8.02
2022-08-28T02:53:11.755Z,7.93
2022-08-28T02:55:38.691Z,9.15
2022-08-28T02:58:06.944Z,8.63
2022-08-28T03:00:34.055Z,10.77
2022-08-28T03:03:00.911Z,9.98
2022-08-28T03:05:27.992Z,11.60
2022-08-28T03:07:55.895Z,15.98
2022-08-28T03:10:23.009Z,13.52
2022-08-28T03:12:50.448Z,16.05
2022-08-28T03:15:18.187Z,15.68
2022-08-28T03:17:46.145Z,18.48
2022-08-28T03:20:15.790Z,22.00
2022-08-28T03:23:01.527Z,18.13
2022-08-28T03:25:28.526Z,23.45
2022-08-28T03:27:56.061Z,24.67
2022-08-28T03:30:23.719Z,24.33
2022-08-28T03:32:50.854Z,21.98
2022-08-28T03:35:17.959Z,21.67
2022-08-28T03:37:45.143Z,20.70
2022-08-28T03:40:12.373Z,18.33
2022-08-28T03:42:39.385Z,16.60
2022-08-28T03:45:11.076Z,18.25
2022-08-28T03:47:39.974Z,19.80
2022-08-28T03:50:08.060Z,20.15
2022-08-28T03:52:38.633Z,15.20
2022-08-28T03:55:09.618Z,19.45
2022-08-28T03:57:36.913Z,19.05
2022-08-28T04:00:07.774Z,23.65
2022-08-28T04:02:39.633Z,15.10
2022-08-28T04:05:08.042Z,18.80
2022-08-28T04:07:35.350Z,15.43
2022-08-28T04:10:02.858Z,16.63
2022-08-28T04:12:29.664Z,22.20
2022-08-28T04:15:01.879Z,22.48
2022-08-28T04:17:28.790Z,17.90
2022-08-28T04:19:56.551Z,26.05
2022-08-28T04:22:23.743Z,21.27
2022-08-28T04:24:50.535Z,29.30
2022-08-28T04:27:17.538Z,23.02
2022-08-28T04:29:44.431Z,23.40
2022-08-28T04:32:11.909Z,22.10
2022-08-28T04:34:38.731Z,21.85
2022-08-28T04:37:06.704Z,23.10
2022-08-28T04:39:34.231Z,20.58
2022-08-28T04:42:01.372Z,22.88
2022-08-28T04:44:28.594Z,24.58
2022-08-28T04:46:55.334Z,25.05
2022-08-28T04:49:25.884Z,22.00
2022-08-28T04:51:52.986Z,26.10
2022-08-28T04:54:20.738Z,26.77
2022-08-28T04:56:47.583Z,35.75
2022-08-28T04:59:14.630Z,28.33
2022-08-28T05:01:42.763Z,25.00
2022-08-28T05:04:11.841Z,29.10
2022-08-28T05:06:47.302Z,24.08
2022-08-28T05:09:17.242Z,24.83
2022-08-28T05:11:44.817Z,26.52
2022-08-28T05:14:15.972Z,30.45
2022-08-28T05:16:49.024Z,26.60
2022-08-28T05:19:17.684Z,27.27
2022-08-28T05:21:44.894Z,28.85
2022-08-28T05:24:12.784Z,27.52
2022-08-28T05:26:41.195Z,27.48
2022-08-28T05:29:08.547Z,26.88
2022-08-28T05:31:35.726Z,27.55
2022-08-28T05:34:04.605Z,28.90
2022-08-28T05:36:36.695Z,23.55
2022-08-28T05:39:06.429Z,23.42
2022-08-28T05:41:33.486Z,28.45
2022-08-28T05:44:02.924Z,30.58
2022-08-28T05:46:30.317Z,28.95
2022-08-28T05:48:57.903Z,30.65
2022-08-28T05:51:26.768Z,29.63
2022-08-28T05:53:55.983Z,35.33
2022-08-28T05:56:26.063Z,29.98
2022-08-28T05:58:53.142Z,23.25
2022-08-28T06:01:28.737Z,23.70
2022-08-28T06:04:14.721Z,16.70
2022-08-28T06:06:42.522Z,14.05
2022-08-28T06:09:20.036Z,20.88
2022-08-28T06:11:47.701Z,22.58
2022-08-28T06:14:18.158Z,22.00
2022-08-28T06:16:47.958Z,25.35
2022-08-28T06:19:15.280Z,17.08
2022-08-28T06:21:43.479Z,16.55
2022-08-28T06:24:12.159Z,15.68
2022-08-28T06:26:39.458Z,15.30
2022-08-28T06:29:09.615Z,15.57
2022-08-28T06:31:37.332Z,13.82
2022-08-28T06:34:04.963Z,11.48
2022-08-28T06:36:34.927Z,9.05
2022-08-28T06:39:04.166Z,11.18
2022-08-28T06:41:32.517Z,11.57
2022-08-28T06:44:00.126Z,12.85
2022-08-28T06:46:29.348Z,8.95
2022-08-28T06:48:56.365Z,10.80
2022-08-28T06:51:24.892Z,12.68
2022-08-28T06:53:52.391Z,16.45
2022-08-28T06:56:25.549Z,15.07
2022-08-28T06:58:56.615Z,16.85
2022-08-28T07:01:30.258Z,19.15
2022-08-28T07:04:01.313Z,25.30
2022-08-28T07:06:32.635Z,25.70
2022-08-28T07:08:59.841Z,23.00
2022-08-28T07:11:31.544Z,21.98
2022-08-28T07:13:59.265Z,35.17
2022-08-28T07:16:29.789Z,25.20
2022-08-28T07:18:57.287Z,26.80
2022-08-28T07:21:24.381Z,32.35
2022-08-28T07:23:51.480Z,26.30
2022-08-28T07:26:22.775Z,25.23
2022-08-28T07:28:51.295Z,27.77
2022-08-28T07:31:24.283Z,26.70
2022-08-28T07:33:54.016Z,26.30
2022-08-28T07:36:28.902Z,21.42
2022-08-28T07:38:59.010Z,29.45
2022-08-28T07:41:32.030Z,27.17
2022-08-28T07:44:17.979Z,26.55
2022-08-28T07:46:45.742Z,24.88
2022-08-28T07:49:17.187Z,22.60
2022-08-28T07:51:46.597Z,24.42
2022-08-28T07:54:17.802Z,23.88
2022-08-28T07:56:46.500Z,17.53
2022-08-28T07:59:16.892Z,23.40
2022-08-28T08:01:49.259Z,26.27
2022-08-28T08:06:44.842Z,26.92
2022-08-28T08:09:14.656Z,26.40
2022-08-28T08:11:42.546Z,29.67
2022-08-28T08:14:10.559Z,30.20
2022-08-28T08:16:40.522Z,31.00
2022-08-28T08:19:14.113Z,30.25
2022-08-28T08:21:43.642Z,26.00
2022-08-28T08:24:12.211Z,26.48
2022-08-28T08:27:00.344Z,24.13
2022-08-28T08:29:35.682Z,26.77
2022-08-28T08:32:07.166Z,24.77
2022-08-28T08:34:36.726Z,26.15
2022-08-28T08:37:05.680Z,20.20
2022-08-28T08:39:34.309Z,23.08
2022-08-28T08:42:03.956Z,20.83
2022-08-28T08:44:38.903Z,19.33
2022-08-28T08:47:16.895Z,22.27
2022-08-28T08:50:09.959Z,20.58
2022-08-28T08:52:56.588Z,31.05
2022-08-28T08:55:35.162Z,26.08
2022-08-28T08:58:13.138Z,29.45
2022-08-28T09:01:18.979Z,21.35
2022-08-28T09:04:13.393Z,25.05
2022-08-28T09:06:50.625Z,23.08
2022-08-28T09:09:26.699Z,21.83
2022-08-28T09:12:15.003Z,22.20
2022-08-28T09:15:11.428Z,18.88
2022-08-28T09:17:48.113Z,17.38
2022-08-28T09:20:30.214Z,20.95
2022-08-28T09:23:00.159Z,24.95
2022-08-28T09:26:04.197Z,27.73
2022-08-28T09:28:36.988Z,24.60
2022-08-28T09:31:13.678Z,16.58
2022-08-28T09:33:45.339Z,22.73
2022-08-28T09:36:24.230Z,22.50
2022-08-28T09:39:10.461Z,15.77
2022-08-28T09:42:03.973Z,23.90
2022-08-28T09:44:31.489Z,21.80
2022-08-28T09:46:59.288Z,23.10
2022-08-28T09:49:30.504Z,21.77
2022-08-28T09:52:01.955Z,21.02
2022-08-28T09:54:36.533Z,21.55
2022-08-28T09:57:04.053Z,22.60
2022-08-28T09:59:31.098Z,22.73
2022-08-28T10:02:23.406Z,23.10
2022-08-28T10:07:41.487Z,17.30
2022-08-28T10:10:42.135Z,20.42
2022-08-28T10:13:21.083Z,25.48
2022-08-28T10:16:29.057Z,22.40
2022-08-28T10:19:10.951Z,17.05
2022-08-28T10:21:43.265Z,26.30
2022-08-28T10:24:37.140Z,30.52
2022-08-28T10:27:31.884Z,24.70
2022-08-28T10:30:15.983Z,19.33
2022-08-28T10:33:24.459Z,19.85
2022-08-28T10:36:23.174Z,20.02
2022-08-28T10:39:03.430Z,19.63
2022-08-28T10:41:43.600Z,16.98
2022-08-28T10:44:14.019Z,20.00
2022-08-28T10:46:46.346Z,16.52
2022-08-28T10:49:31.228Z,17.00
2022-08-28T10:52:16.244Z,14.60
2022-08-28T10:55:04.104Z,15.20
2022-08-28T10:57:39.434Z,16.77
2022-08-28T11:00:30.231Z,23.08
2022-08-28T11:03:17.794Z,16.40
2022-08-28T11:06:01.842Z,12.68
2022-08-28T11:08:32.549Z,13.48
2022-08-28T11:11:02.062Z,22.00
2022-08-28T11:13:59.867Z,16.08
2022-08-28T11:16:30.372Z,14.27
2022-08-28T11:19:17.757Z,14.25
2022-08-28T11:21:47.998Z,12.77
2022-08-28T11:24:26.615Z,9.88
2022-08-28T11:27:21.855Z,16.42
2022-08-28T11:30:06.688Z,17.30
2022-08-28T11:32:52.201Z,17.38
2022-08-28T11:35:44.874Z,14.20
2022-08-28T11:38:32.714Z,17.58
2022-08-28T11:41:14.820Z,14.05
2022-08-28T11:43:44.945Z,17.02
2022-08-28T11:46:25.189Z,17.00
2022-08-28T11:48:59.042Z,14.75
2022-08-28T11:51:31.841Z,20.95
2022-08-28T11:54:04.869Z,13.93
2022-08-28T11:56:40.035Z,16.52
2022-08-28T11:59:39.142Z,16.70
2022-08-28T12:02:35.797Z,16.65
2022-08-28T12:05:11.846Z,15.88
2022-08-28T12:07:41.671Z,13.00
2022-08-28T12:10:20.933Z,14.82
2022-08-28T12:12:47.732Z,16.00
2022-08-28T12:15:33.718Z,12.82
2022-08-28T12:18:01.852Z,13.95
2022-08-28T12:21:19.453Z,13.13
2022-08-28T12:24:16.252Z,17.48
2022-08-28T12:26:49.836Z,20.40
2022-08-28T12:29:27.463Z,17.42
2022-08-28T12:32:16.322Z,16.85
2022-08-28T12:34:50.221Z,11.82
2022-08-28T12:37:39.485Z,13.57
2022-08-28T12:40:31.950Z,12.95
2022-08-28T12:43:05.492Z,8.57
2022-08-28T12:45:42.951Z,18.42
2022-08-28T12:48:25.304Z,13.93
2022-08-28T12:51:03.469Z,16.40
2022-08-28T12:53:43.137Z,19.90
2022-08-28T12:56:15.028Z,14.68
2022-08-28T13:01:12.423Z,16.95
2022-08-28T13:03:52.716Z,15.70
2022-08-28T13:06:27.011Z,12.48
2022-08-28T13:09:17.547Z,12.40
2022-08-28T13:11:50.435Z,24.17
2022-08-28T13:14:36.375Z,20.92
2022-08-28T13:17:03.444Z,14.77
2022-08-28T13:19:34.868Z,14.18
2022-08-28T13:22:04.875Z,13.63
2022-08-28T13:24:31.984Z,15.60
2022-08-28T13:27:18.070Z,17.33
2022-08-28T13:30:23.338Z,14.50
2022-08-28T13:33:02.748Z,16.95
2022-08-28T13:35:36.151Z,11.10
2022-08-28T13:38:16.566Z,15.85
2022-08-28T13:40:58.059Z,15.00
2022-08-28T13:43:29.090Z,15.60
2022-08-28T13:45:56.334Z,14.63
2022-08-28T13:48:27.770Z,15.10
2022-08-28T13:51:10.365Z,17.38
2022-08-28T13:53:38.676Z,13.20
2022-08-28T13:56:06.726Z,13.27
2022-08-28T13:58:33.683Z,15.73
2022-08-28T14:01:01.514Z,15.82
2022-08-28T14:03:41.414Z,16.88
2022-08-28T14:06:14.380Z,12.77
2022-08-28T14:08:43.919Z,13.35
2022-08-28T14:11:12.925Z,11.50
2022-08-28T14:13:46.913Z,13.48
2022-08-28T14:16:26.036Z,12.90
2022-08-28T14:18:54.052Z,12.40
2022-08-28T14:21:24.586Z,21.05
2022-08-28T14:23:51.760Z,15.95
2022-08-28T14:26:18.935Z,12.40
2022-08-28T14:28:45.720Z,14.40
2022-08-28T14:31:14.818Z,11.70
2022-08-28T14:33:45.040Z,12.32
2022-08-28T14:36:22.634Z,17.02
2022-08-28T14:38:53.893Z,8.57
2022-08-28T14:41:22.588Z,15.77
2022-08-28T14:43:49.763Z,11.52
2022-08-28T14:46:18.850Z,13.48
2022-08-28T14:48:45.785Z,12.18
2022-08-28T14:51:12.722Z,17.70
2022-08-28T14:53:40.132Z,13.75
2022-08-28T14:56:08.832Z,16.65
2022-08-28T14:58:36.377Z,15.10
2022-08-28T15:01:05.171Z,13.05
2022-08-28T15:03:32.473Z,13.30
2022-08-28T15:06:07.848Z,14.65
2022-08-28T15:08:35.812Z,12.73
2022-08-28T15:11:18.492Z,10.13
2022-08-28T15:13:47.136Z,19.77
2022-08-28T15:16:19.085Z,20.55
2022-08-28T15:18:47.425Z,11.65
2022-08-28T15:21:19.512Z,21.40
2022-08-28T15:23:46.563Z,18.10
2022-08-28T15:26:15.557Z,18.13
2022-08-28T15:28:42.638Z,16.80
2022-08-28T15:31:09.467Z,17.35
2022-08-28T15:33:36.386Z,17.30
2022-08-28T15:36:03.983Z,17.27
2022-08-28T15:38:50.746Z,30.70
2022-08-28T15:41:26.696Z,15.05
2022-08-28T15:43:55.885Z,13.85
2022-08-28T15:46:24.096Z,22.40
2022-08-28T15:48:54.379Z,10.95
2022-08-28T15:51:25.699Z,14.07
2022-08-28T15:53:53.010Z,12.48
2022-08-28T15:56:20.352Z,17.38
2022-08-28T15:58:47.314Z,23.20
2022-08-28T16:01:14.813Z,18.02
2022-08-28T16:03:41.985Z,13.25
2022-08-28T16:06:17.395Z,14.50
2022-08-28T16:08:45.050Z,11.38
2022-08-28T16:11:17.100Z,13.07
2022-08-28T16:13:43.960Z,10.50
2022-08-28T16:16:11.321Z,12.73
2022-08-28T16:18:38.598Z,14.63
2022-08-28T16:21:06.747Z,15.18
2022-08-28T16:23:35.489Z,14.57
2022-08-28T16:26:04.143Z,12.43
2022-08-28T16:28:32.791Z,12.07
2022-08-28T16:31:05.062Z,15.45
2022-08-28T16:33:35.718Z,27.80
2022-08-28T16:36:11.208Z,11.95
2022-08-28T16:38:39.417Z,12.57
2022-08-28T16:41:15.093Z,8.43
2022-08-28T16:43:42.678Z,11.55
2022-08-28T16:46:17.086Z,10.43
2022-08-28T16:48:45.054Z,14.18
2022-08-28T16:51:12.757Z,15.02
2022-08-28T16:53:43.134Z,15.93
2022-08-28T16:56:11.437Z,11.13
2022-08-28T16:58:39.592Z,12.13
2022-08-28T17:01:08.247Z,13.50
2022-08-28T17:03:38.665Z,8.80
2022-08-28T17:06:16.657Z,24.25
2022-08-28T17:08:44.473Z,21.67
2022-08-28T17:11:12.265Z,14.27
2022-08-28T17:13:39.829Z,15.20
2022-08-28T17:16:07.293Z,10.50
2022-08-28T17:18:35.252Z,12.07
2022-08-28T17:21:20.267Z,16.77
2022-08-28T17:23:47.615Z,16.02
2022-08-28T17:26:15.477Z,11.32
2022-08-28T17:28:43.868Z,16.98
2022-08-28T17:31:11.732Z,12.52
2022-08-28T17:33:43.223Z,15.63
2022-08-28T17:36:21.266Z,16.70
2022-08-28T17:38:59.579Z,15.55
2022-08-28T17:41:26.715Z,13.77
2022-08-28T17:43:53.458Z,9.80
2022-08-28T17:46:20.654Z,13.07
2022-08-28T17:48:54.294Z,20.17
2022-08-28T17:51:33.835Z,15.50
2022-08-28T17:54:18.003Z,13.93
2022-08-28T17:56:45.216Z,15.85
2022-08-28T17:59:13.502Z,13.52
2022-08-28T18:01:41.756Z,12.05
2022-08-28T18:04:09.299Z,13.85
2022-08-28T18:06:36.872Z,16.25
2022-08-28T18:09:05.933Z,14.05
2022-08-28T18:11:33.492Z,17.45
2022-08-28T18:14:00.961Z,20.52
2022-08-28T18:16:31.336Z,16.35
2022-08-28T18:19:02.409Z,28.92
2022-08-28T18:21:29.672Z,12.48
2022-08-28T18:23:57.215Z,18.35
2022-08-28T18:26:24.287Z,16.33
2022-08-28T18:28:51.952Z,23.63
2022-08-28T18:31:19.174Z,15.85
2022-08-28T18:33:46.887Z,11.77
2022-08-28T18:36:16.115Z,16.90
2022-08-28T18:38:44.240Z,13.93
2022-08-28T18:41:12.241Z,17.85
2022-08-28T18:43:39.709Z,13.20
2022-08-28T18:46:09.362Z,17.20
2022-08-28T18:48:37.638Z,18.15
2022-08-28T18:51:10.009Z,18.25
2022-08-28T18:53:37.761Z,16.77
2022-08-28T18:56:06.330Z,13.63
2022-08-28T18:58:33.499Z,18.42
2022-08-28T19:01:02.426Z,12.30
2022-08-28T19:03:30.256Z,12.88
2022-08-28T19:05:57.502Z,14.90
2022-08-28T19:08:25.363Z,13.63
2022-08-28T19:10:53.114Z,11.90
2022-08-28T19:13:20.309Z,13.07
2022-08-28T19:15:52.936Z,12.35
2022-08-28T19:18:19.992Z,12.75
2022-08-28T19:20:47.459Z,11.38
2022-08-28T19:23:17.643Z,15.60
2022-08-28T19:25:45.920Z,11.88
2022-08-28T19:28:12.969Z,15.45
2022-08-28T19:30:39.995Z,19.77
2022-08-28T19:33:07.108Z,14.90
2022-08-28T19:35:34.001Z,16.25
2022-08-28T19:38:01.683Z,15.80
2022-08-28T19:40:29.236Z,10.70
2022-08-28T19:42:56.484Z,14.23
2022-08-28T19:45:23.347Z,12.65
2022-08-28T19:47:50.495Z,17.77
2022-08-28T19:50:17.675Z,15.02
2022-08-28T19:52:46.669Z,16.58
2022-08-28T19:55:32.865Z,15.07
2022-08-28T19:57:59.700Z,15.35
2022-08-28T20:00:32.025Z,14.10
2022-08-28T20:02:59.602Z,12.57
2022-08-28T20:05:26.700Z,16.27
2022-08-28T20:07:53.468Z,15.05
2022-08-28T20:10:21.647Z,13.15
2022-08-28T20:12:48.978Z,14.18
2022-08-28T20:15:18.035Z,12.20
2022-08-28T20:17:50.016Z,12.88
2022-08-28T20:20:25.584Z,14.57
2022-08-28T20:22:54.772Z,15.50
2022-08-28T20:25:23.870Z,15.10
2022-08-28T20:27:50.679Z,12.18
2022-08-28T20:30:18.163Z,14.57
2022-08-28T20:32:45.426Z,15.63
2022-08-28T20:35:13.294Z,15.60
2022-08-28T20:37:44.917Z,15.60
2022-08-28T20:40:18.322Z,17.15
2022-08-28T20:42:46.573Z,16.67
2022-08-28T20:45:15.257Z,15.35
2022-08-28T20:47:43.013Z,13.82
2022-08-28T20:50:10.141Z,14.80
2022-08-28T20:52:37.602Z,14.88
2022-08-28T20:55:07.670Z,13.60
2022-08-28T20:57:35.346Z,11.93
2022-08-28T21:00:05.737Z,15.15
2022-08-28T21:02:33.433Z,13.18
2022-08-28T21:05:00.868Z,13.40
2022-08-28T21:07:28.591Z,16.27
2022-08-28T21:10:05.567Z,12.25
2022-08-28T21:12:39.308Z,17.83
2022-08-28T21:15:08.928Z,14.15
2022-08-28T21:17:36.069Z,11.90
2022-08-28T21:20:08.625Z,12.57
2022-08-28T21:22:36.022Z,14.18
2022-08-28T21:25:08.784Z,16.20
2022-08-28T21:27:35.766Z,16.40
2022-08-28T21:30:03.396Z,14.38
2022-08-28T21:32:32.726Z,14.43
2022-08-28T21:35:02.431Z,22.70
2022-08-28T21:37:29.534Z,12.77
2022-08-28T21:39:59.329Z,15.57
2022-08-28T21:42:26.891Z,19.30
2022-08-28T21:44:54.713Z,13.75
2022-08-28T21:47:23.430Z,15.60
2022-08-28T21:49:52.112Z,18.42
2022-08-28T21:52:20.768Z,16.25
2022-08-28T21:54:48.256Z,15.02
2022-08-28T21:57:16.810Z,16.45
2022-08-28T21:59:43.609Z,15.43
2022-08-28T22:02:10.726Z,15.80
2022-08-28T22:04:37.717Z,16.67
2022-08-28T22:07:04.611Z,14.20
2022-08-28T22:09:31.657Z,17.05
2022-08-28T22:11:58.411Z,15.82
2022-08-28T22:14:25.519Z,14.70
2022-08-28T22:16:52.456Z,15.45
2022-08-28T22:19:19.971Z,16.50
2022-08-28T22:22:05.118Z,13.63
2022-08-28T22:24:32.361Z,12.38
2022-08-28T22:26:59.364Z,16.25
2022-08-28T22:29:26.358Z,21.42
2022-08-28T22:31:53.247Z,15.43
2022-08-28T22:34:20.245Z,12.70
2022-08-28T22:36:47.345Z,16.20
2022-08-28T22:39:14.225Z,16.95
2022-08-28T22:41:42.286Z,11.13
2022-08-28T22:44:10.010Z,16.98
2022-08-28T22:46:37.111Z,17.55
2022-08-28T22:49:04.383Z,18.15
2022-08-28T22:51:34.589Z,17.23
2022-08-28T22:54:01.707Z,14.35
2022-08-28T22:56:28.876Z,15.80
2022-08-28T22:58:55.775Z,16.10
2022-08-28T23:01:24.823Z,24.83
2022-08-28T23:03:52.010Z,15.98
2022-08-28T23:06:20.611Z,12.85
2022-08-28T23:08:47.789Z,12.43
2022-08-28T23:11:15.193Z,11.77
2022-08-28T23:13:42.220Z,15.73
2022-08-28T23:16:09.806Z,14.10
2022-08-28T23:19:04.228Z,13.15
2022-08-28T23:21:26.626Z,16.02
2022-08-28T23:23:55.205Z,13.85
2022-08-28T23:26:22.522Z,15.43
2022-08-28T23:28:49.746Z,14.13
2022-08-28T23:31:16.864Z,16.15
2022-08-28T23:33:44.133Z,13.13
2022-08-28T23:36:11.795Z,17.92
2022-08-28T23:38:40.792Z,15.60
2022-08-28T23:41:11.297Z,18.17
2022-08-28T23:43:38.474Z,9.70
2022-08-28T23:46:06.627Z,13.30
2022-08-28T23:48:35.233Z,12.48
2022-08-28T23:51:02.718Z,17.17
2022-08-28T23:53:29.541Z,13.10
2022-08-28T23:55:59.655Z,12.88
2022-08-28T23:58:31.612Z,14.07
